Time,TemperatureF,DewpointF,PressureIn,WindDirection,WindDirectionDegrees,WindSpeedMPH,WindSpeedGustMPH,Humidity,HourlyPrecipIn,Conditions,Clouds,dailyrainin,SoftwareType,DateUTC
2013-02-27 00:01:00,29.0,6.0,-100.00,SSE,168,2.0,4.0,37,-99.99,,,-99.99,,2013-02-27 08:01:00,
2013-02-27 00:21:00,28.0,6.0,-100.00,SSE,152,1.0,2.0,39,-99.99,,,-99.99,,2013-02-27 08:21:00,
2013-02-27 00:31:00,28.0,6.0,-100.00,SSE,152,1.0,2.0,39,-99.99,,,-99.99,,2013-02-27 08:31:00,
2013-02-27 00:41:00,28.0,5.0,-100.00,South,169,1.0,2.0,37,-99.99,,,-99.99,,2013-02-27 08:41:00,
2013-02-27 00:52:00,28.0,5.0,-100.00,South,169,1.0,2.0,37,-99.99,,,-99.99,,2013-02-27 08:52:00,
2013-02-27 01:01:00,28.0,5.0,-100.00,South,169,1.0,2.0,37,-99.99,,,-99.99,,2013-02-27 09:01:00,
2013-02-27 01:21:00,28.0,4.0,-100.00,South,171,1.0,2.0,36,-99.99,,,-99.99,,2013-02-27 09:21:00,
2013-02-27 01:32:00,28.0,4.0,-100.00,South,171,1.0,2.0,36,-99.99,,,-99.99,,2013-02-27 09:32:00,
2013-02-27 01:41:00,28.0,4.0,-100.00,South,171,1.0,2.0,36,-99.99,,,-99.99,,2013-02-27 09:41:00,
2013-02-27 02:01:00,27.0,7.0,-100.00,SSE,160,1.0,2.0,41,-99.99,,,-99.99,,2013-02-27 10:01:00,
2013-02-27 02:12:00,27.0,7.0,-100.00,SSE,160,1.0,2.0,41,-99.99,,,-99.99,,2013-02-27 10:12:00,
2013-02-27 02:21:00,27.0,6.0,-100.00,SSE,168,1.0,2.0,39,-99.99,,,-99.99,,2013-02-27 10:21:00,
2013-02-27 02:22:00,26.0,7.0,-100.00,SSE,157,0.0,2.0,43,-99.99,,,-99.99,,2013-02-27 10:22:00,
2013-02-27 02:32:00,27.0,6.0,-100.00,SSE,168,1.0,2.0,39,-99.99,,,-99.99,,2013-02-27 10:32:00,
2013-02-27 02:42:00,27.0,7.0,-100.00,SSE,161,0.0,1.0,42,-99.99,,,-99.99,,2013-02-27 10:42:00,
2013-02-27 02:52:00,27.0,7.0,-100.00,SSE,161,0.0,1.0,42,-99.99,,,-99.99,,2013-02-27 10:52:00,
2013-02-27 03:01:00,26.0,7.0,-100.00,SSE,157,0.0,2.0,43,-99.99,,,-99.99,,2013-02-27 11:01:00,
2013-02-27 03:12:00,26.0,7.0,-100.00,SSE,157,0.0,2.0,43,-99.99,,,-99.99,,2013-02-27 11:12:00,
2013-02-27 03:42:00,26.0,7.0,-100.00,SSE,164,2.0,2.0,44,-99.99,,,-99.99,,2013-02-27 11:42:00,
2013-02-27 03:52:00,26.0,7.0,-100.00,SSE,164,2.0,2.0,44,-99.99,,,-99.99,,2013-02-27 11:52:00,
2013-02-27 04:02:00,26.0,5.0,-100.00,SSE,160,1.0,2.0,39,-99.99,,,-99.99,,2013-02-27 12:02:00,
2013-02-27 04:12:00,26.0,5.0,-100.00,SSE,160,1.0,2.0,39,-99.99,,,-99.99,,2013-02-27 12:12:00,
2013-02-27 04:22:00,26.0,7.0,-100.00,SSE,167,1.0,2.0,43,-99.99,,,-99.99,,2013-02-27 12:22:00,
2013-02-27 04:32:00,26.0,7.0,-100.00,SSE,167,1.0,2.0,43,-99.99,,,-99.99,,2013-02-27 12:32:00,
2013-02-27 05:02:00,26.0,6.0,-100.00,SSE,165,1.0,2.0,41,-99.99,,,-99.99,,2013-02-27 13:02:00,
2013-02-27 05:11:00,26.0,6.0,-100.00,SSE,165,1.0,2.0,41,-99.99,,,-99.99,,2013-02-27 13:11:00,
2013-02-27 05:21:00,26.0,6.0,-100.00,SSE,165,1.0,2.0,41,-99.99,,,-99.99,,2013-02-27 13:21:00,
2013-02-27 06:02:00,25.0,8.0,-100.00,SSE,167,0.0,1.0,47,-99.99,,,-99.99,,2013-02-27 14:02:00,
2013-02-27 06:21:00,25.0,7.0,-100.00,SSE,152,1.0,1.0,46,-99.99,,,-99.99,,2013-02-27 14:21:00,
2013-02-27 06:32:00,25.0,7.0,-100.00,SSE,152,1.0,1.0,46,-99.99,,,-99.99,,2013-02-27 14:32:00,
2013-02-27 06:42:00,25.0,5.0,-100.00,SSE,168,1.0,2.0,41,-99.99,,,-99.99,,2013-02-27 14:42:00,
2013-02-27 06:52:00,25.0,5.0,-100.00,SSE,168,1.0,2.0,41,-99.99,,,-99.99,,2013-02-27 14:52:00,
2013-02-27 07:02:00,25.0,12.0,-100.00,SSE,155,0.0,2.0,55,-99.99,,,-99.99,,2013-02-27 15:02:00,
2013-02-27 07:22:00,26.0,9.0,-100.00,SSE,158,1.0,2.0,49,-99.99,,,-99.99,,2013-02-27 15:22:00,
2013-02-27 07:32:00,26.0,9.0,-100.00,SSE,158,1.0,2.0,49,-99.99,,,-99.99,,2013-02-27 15:32:00,
2013-02-27 07:42:00,25.0,13.0,-100.00,SE,128,1.0,2.0,59,-99.99,,,-99.99,,2013-02-27 15:42:00,
2013-02-27 07:52:00,25.0,13.0,-100.00,SE,128,1.0,2.0,59,-99.99,,,-99.99,,2013-02-27 15:52:00,
2013-02-27 08:01:00,24.0,15.0,-100.00,South,178,0.0,1.0,68,-99.99,,,-99.99,,2013-02-27 16:01:00,
2013-02-27 08:21:00,25.0,13.0,-100.00,SSE,167,1.0,2.0,60,-99.99,,,-99.99,,2013-02-27 16:21:00,
2013-02-27 08:32:00,25.0,13.0,-100.00,SSE,167,1.0,2.0,60,-99.99,,,-99.99,,2013-02-27 16:32:00,
2013-02-27 11:21:00,36.0,21.0,-100.00,NW,304,1.0,4.0,54,-99.99,,,-99.99,,2013-02-27 19:21:00,
2013-02-27 11:32:00,36.0,21.0,-100.00,NW,304,1.0,4.0,54,-99.99,,,-99.99,,2013-02-27 19:32:00,
2013-02-27 11:42:00,36.0,21.0,-100.00,West,268,2.0,5.0,52,-99.99,,,-99.99,,2013-02-27 19:42:00,
2013-02-27 11:52:00,36.0,21.0,-100.00,West,268,2.0,5.0,52,-99.99,,,-99.99,,2013-02-27 19:52:00,
2013-02-27 12:01:00,37.0,20.0,-100.00,WSW,258,1.0,5.0,51,-99.99,,,-99.99,,2013-02-27 20:01:00,
2013-02-27 12:11:00,37.0,20.0,-100.00,WSW,258,1.0,5.0,51,-99.99,,,-99.99,,2013-02-27 20:11:00,
2013-02-27 12:21:00,37.0,23.0,-100.00,WSW,251,1.0,5.0,57,-99.99,,,-99.99,,2013-02-27 20:21:00,
2013-02-27 12:32:00,37.0,23.0,-100.00,WSW,251,1.0,5.0,57,-99.99,,,-99.99,,2013-02-27 20:32:00,
2013-02-27 12:42:00,38.0,22.0,-100.00,WNW,302,1.0,3.0,52,-99.99,,,-99.99,,2013-02-27 20:42:00,
2013-02-27 12:52:00,38.0,22.0,-100.00,WNW,302,1.0,3.0,52,-99.99,,,-99.99,,2013-02-27 20:52:00,
2013-02-27 13:01:00,40.0,23.0,-100.00,West,275,1.0,5.0,52,-99.99,,,-99.99,,2013-02-27 21:01:00,
2013-02-27 13:11:00,40.0,23.0,-100.00,West,275,1.0,5.0,52,-99.99,,,-99.99,,2013-02-27 21:11:00,
2013-02-27 13:21:00,40.0,26.0,-100.00,WNW,298,1.0,4.0,56,-99.99,,,-99.99,,2013-02-27 21:21:00,
2013-02-27 13:31:00,40.0,26.0,-100.00,WNW,298,1.0,4.0,56,-99.99,,,-99.99,,2013-02-27 21:31:00,
2013-02-27 14:01:00,43.0,18.0,-100.00,WSW,240,1.0,4.0,36,-99.99,,,-99.99,,2013-02-27 22:01:00,
2013-02-27 14:11:00,43.0,18.0,-100.00,WSW,240,1.0,4.0,36,-99.99,,,-99.99,,2013-02-27 22:11:00,
2013-02-27 14:21:00,44.0,18.0,-100.00,North,6,1.0,4.0,34,-99.99,,,-99.99,,2013-02-27 22:21:00,
2013-02-27 14:31:00,44.0,18.0,-100.00,North,6,1.0,4.0,34,-99.99,,,-99.99,,2013-02-27 22:31:00,
2013-02-27 14:41:00,44.0,16.0,-100.00,NNE,14,2.0,5.0,32,-99.99,,,-99.99,,2013-02-27 22:41:00,
2013-02-27 14:52:00,44.0,16.0,-100.00,NNE,14,2.0,5.0,32,-99.99,,,-99.99,,2013-02-27 22:52:00,
2013-02-27 15:01:00,46.0,16.0,-100.00,North,352,1.0,6.0,30,-99.99,,,-99.99,,2013-02-27 23:01:00,
2013-02-27 15:11:00,46.0,16.0,-100.00,North,352,1.0,6.0,30,-99.99,,,-99.99,,2013-02-27 23:11:00,
2013-02-27 15:21:00,46.0,17.0,-100.00,North,356,2.0,6.0,31,-99.99,,,-99.99,,2013-02-27 23:21:00,
2013-02-27 15:32:00,46.0,17.0,-100.00,North,356,2.0,6.0,31,-99.99,,,-99.99,,2013-02-27 23:32:00,
2013-02-27 15:42:00,46.0,15.0,-100.00,West,277,2.0,8.0,28,-99.99,,,-99.99,,2013-02-27 23:42:00,
2013-02-27 15:53:00,46.0,15.0,-100.00,West,277,2.0,8.0,28,-99.99,,,-99.99,,2013-02-27 23:53:00,
2013-02-27 16:01:00,46.0,10.0,-100.00,NNW,332,2.0,7.0,23,-99.99,,,-99.99,,2013-02-28 00:01:00,
2013-02-27 16:11:00,46.0,10.0,-100.00,NNW,332,2.0,7.0,23,-99.99,,,-99.99,,2013-02-28 00:11:00,
2013-02-27 16:21:00,47.0,10.0,-100.00,West,274,1.0,7.0,22,-99.99,,,-99.99,,2013-02-28 00:21:00,
2013-02-27 16:32:00,47.0,10.0,-100.00,West,274,1.0,7.0,22,-99.99,,,-99.99,,2013-02-28 00:32:00,
2013-02-27 16:42:00,44.0,8.0,-100.00,WSW,239,1.0,3.0,23,-99.99,,,-99.99,,2013-02-28 00:42:00,
2013-02-27 16:52:00,44.0,8.0,-100.00,WSW,239,1.0,3.0,23,-99.99,,,-99.99,,2013-02-28 00:52:00,
2013-02-27 17:01:00,43.0,11.0,-100.00,SW,215,1.0,4.0,27,-99.99,,,-99.99,,2013-02-28 01:01:00,
2013-02-27 17:11:00,43.0,11.0,-100.00,SW,215,1.0,4.0,27,-99.99,,,-99.99,,2013-02-28 01:11:00,
2013-02-27 17:21:00,43.0,11.0,-100.00,SW,215,1.0,4.0,27,-99.99,,,-99.99,,2013-02-28 01:21:00,
2013-02-27 17:42:00,41.0,11.0,-100.00,South,182,1.0,5.0,28,-99.99,,,-99.99,,2013-02-28 01:42:00,
2013-02-27 17:52:00,41.0,11.0,-100.00,South,182,1.0,5.0,28,-99.99,,,-99.99,,2013-02-28 01:52:00,
2013-02-27 18:01:00,41.0,11.0,-100.00,South,182,1.0,5.0,28,-99.99,,,-99.99,,2013-02-28 02:01:00,
2013-02-27 18:22:00,41.0,16.0,-100.00,SE,143,1.0,3.0,36,-99.99,,,-99.99,,2013-02-28 02:22:00,
2013-02-27 18:31:00,41.0,16.0,-100.00,SE,143,1.0,3.0,36,-99.99,,,-99.99,,2013-02-28 02:31:00,
2013-02-27 18:41:00,41.0,16.0,-100.00,SE,143,1.0,3.0,36,-99.99,,,-99.99,,2013-02-28 02:41:00,
2013-02-27 19:01:00,40.0,23.0,-100.00,ESE,114,1.0,2.0,50,-99.99,,,-99.99,,2013-02-28 03:01:00,
2013-02-27 19:11:00,40.0,23.0,-100.00,ESE,114,1.0,2.0,50,-99.99,,,-99.99,,2013-02-28 03:11:00,
2013-02-27 19:21:00,38.0,23.0,-100.00,SSE,154,2.0,4.0,55,-99.99,,,-99.99,,2013-02-28 03:21:00,
2013-02-27 19:31:00,38.0,23.0,-100.00,SSE,154,2.0,4.0,55,-99.99,,,-99.99,,2013-02-28 03:31:00,
2013-02-27 19:41:00,36.0,23.0,-100.00,South,169,1.0,2.0,59,-99.99,,,-99.99,,2013-02-28 03:41:00,
2013-02-27 19:52:00,36.0,23.0,-100.00,South,169,1.0,2.0,59,-99.99,,,-99.99,,2013-02-28 03:52:00,
2013-02-27 20:01:00,35.0,21.0,-100.00,SSE,165,1.0,2.0,57,-99.99,,,-99.99,,2013-02-28 04:01:00,
2013-02-27 20:11:00,35.0,21.0,-100.00,SSE,165,1.0,2.0,57,-99.99,,,-99.99,,2013-02-28 04:11:00,
2013-02-27 20:21:00,35.0,22.0,-100.00,SSE,161,1.0,2.0,58,-99.99,,,-99.99,,2013-02-28 04:21:00,
2013-02-27 20:31:00,35.0,22.0,-100.00,SSE,161,1.0,2.0,58,-99.99,,,-99.99,,2013-02-28 04:31:00,
2013-02-27 20:41:00,35.0,22.0,-100.00,SSE,161,1.0,2.0,58,-99.99,,,-99.99,,2013-02-28 04:41:00,
2013-02-27 21:22:00,33.0,20.0,-100.00,South,171,1.0,2.0,59,-99.99,,,-99.99,,2013-02-28 05:22:00,
2013-02-27 21:31:00,33.0,20.0,-100.00,South,171,1.0,2.0,59,-99.99,,,-99.99,,2013-02-28 05:31:00,
2013-02-27 21:42:00,33.0,20.0,-100.00,SSE,154,1.0,2.0,58,-99.99,,,-99.99,,2013-02-28 05:42:00,
2013-02-27 21:52:00,33.0,20.0,-100.00,SSE,154,1.0,2.0,58,-99.99,,,-99.99,,2013-02-28 05:52:00,
2013-02-27 22:01:00,33.0,20.0,-100.00,SSE,157,1.0,2.0,58,-99.99,,,-99.99,,2013-02-28 06:01:00,
2013-02-27 22:11:00,33.0,20.0,-100.00,SSE,157,1.0,2.0,58,-99.99,,,-99.99,,2013-02-28 06:11:00,
2013-02-27 22:22:00,34.0,20.0,-100.00,SE,143,1.0,2.0,56,-99.99,,,-99.99,,2013-02-28 06:22:00,
2013-02-27 22:32:00,34.0,20.0,-100.00,SE,143,1.0,2.0,56,-99.99,,,-99.99,,2013-02-28 06:32:00,
2013-02-27 22:42:00,34.0,20.0,-100.00,SSE,150,1.0,2.0,57,-99.99,,,-99.99,,2013-02-28 06:42:00,
2013-02-27 22:52:00,34.0,20.0,-100.00,SSE,150,1.0,2.0,57,-99.99,,,-99.99,,2013-02-28 06:52:00,
2013-02-27 23:01:00,32.0,20.0,-100.00,South,184,0.0,2.0,60,-99.99,,,-99.99,,2013-02-28 07:01:00,
2013-02-27 23:11:00,32.0,20.0,-100.00,South,184,0.0,2.0,60,-99.99,,,-99.99,,2013-02-28 07:11:00,
2013-02-27 23:21:00,32.0,19.0,-100.00,South,172,2.0,2.0,58,-99.99,,,-99.99,,2013-02-28 07:21:00,
2013-02-27 23:31:00,32.0,19.0,-100.00,South,172,2.0,2.0,58,-99.99,,,-99.99,,2013-02-28 07:31:00,
2013-02-27 23:41:00,34.0,21.0,-100.00,SSE,161,2.0,4.0,58,-99.99,,,-99.99,,2013-02-28 07:41:00,
2013-02-27 23:52:00,34.0,21.0,-100.00,SSE,161,2.0,4.0,58,-99.99,,,-99.99,,2013-02-28 07:52:00,